Time;durP1;ratioP1;P1;durP2;ratioP2;P2;SDS_P1;SDS_P2;PMS_P1;PMS_P2;Temp;Humidity;BMP_temperature;BMP_pressure;BME280_temperature;BME280_humidity;BME280_pressure;Samples;Min_cycle;Max_cycle;Signal;HPM_P1;HPM_P2
2023/09/23 00:00:47;;;;;;;12.23;4.43;;;;;;;23.06;52.47;98395.53;4357906;32;34542;-88
2023/09/23 00:03:16;;;;;;;14.13;4.60;;;;;;;23.03;52.62;98398.31;4346627;32;33332;-88
2023/09/23 00:05:44;;;;;;;13.13;4.60;;;;;;;22.93;52.55;98405.03;4343534;32;34055;-87
2023/09/23 00:08:12;;;;;;;11.10;4.68;;;;;;;22.98;52.40;98406.50;4354568;32;33671;-88
2023/09/23 00:10:40;;;;;;;17.83;5.25;;;;;;;22.94;52.55;98417.28;4345978;32;33729;-87
2023/09/23 00:13:08;;;;;;;14.50;4.60;;;;;;;22.92;52.49;98416.50;4349571;32;33315;-88
2023/09/23 00:15:35;;;;;;;14.30;4.50;;;;;;;22.83;52.80;98416.00;4358055;32;34227;-93
2023/09/23 00:18:05;;;;;;;12.05;5.03;;;;;;;22.94;52.66;98401.44;4354099;32;34395;-87
2023/09/23 00:20:33;;;;;;;12.75;4.47;;;;;;;22.87;52.86;98389.44;4359275;32;33712;-87
2023/09/23 00:23:02;;;;;;;14.10;4.70;;;;;;;22.83;52.83;98388.72;4359308;32;34047;-88
2023/09/23 00:25:30;;;;;;;17.50;4.22;;;;;;;22.74;53.25;98397.12;4358960;32;33910;-88
2023/09/23 00:27:57;;;;;;;15.05;5.40;;;;;;;22.63;53.28;98397.62;4356446;32;33632;-87
2023/09/23 00:30:26;;;;;;;12.98;4.82;;;;;;;22.74;53.08;98400.59;4360294;32;33847;-89
2023/09/23 00:32:54;;;;;;;10.32;4.37;;;;;;;22.65;53.40;98403.69;4359876;32;34088;-88
2023/09/23 00:35:22;;;;;;;14.48;5.10;;;;;;;22.68;53.42;98406.19;4360570;32;34896;-88
2023/09/23 00:37:50;;;;;;;21.80;5.35;;;;;;;22.71;53.30;98411.31;4351357;32;33819;-89
2023/09/23 00:40:24;;;;;;;12.23;4.70;;;;;;;22.67;53.51;98403.62;4349615;32;33602;-87
2023/09/23 00:42:55;;;;;;;14.00;4.97;;;;;;;22.60;53.80;98403.06;4351117;32;33508;-87
2023/09/23 00:45:25;;;;;;;16.02;4.97;;;;;;;22.73;53.75;98411.22;4359941;32;33758;-88
2023/09/23 00:47:53;;;;;;;17.37;4.53;;;;;;;22.58;53.99;98404.94;4350474;32;34426;-92
2023/09/23 00:50:20;;;;;;;12.95;4.35;;;;;;;22.61;53.91;98401.25;4349494;32;34895;-87
2023/09/23 00:52:52;;;;;;;15.38;4.82;;;;;;;22.57;54.07;98405.84;4348964;32;34022;-87
2023/09/23 00:55:22;;;;;;;15.60;4.87;;;;;;;22.57;54.12;98406.69;4359029;32;34955;-87
2023/09/23 00:57:53;;;;;;;14.18;4.90;;;;;;;22.63;53.90;98410.84;4350256;32;33476;-87
2023/09/23 01:00:27;;;;;;;12.27;4.70;;;;;;;22.54;54.52;98408.63;4345204;32;33763;-87
2023/09/23 01:02:56;;;;;;;14.68;5.28;;;;;;;22.54;54.71;98411.25;4347444;32;34092;-85
2023/09/23 01:05:28;;;;;;;13.15;5.68;;;;;;;22.68;54.52;98416.75;4345012;32;34973;-84
2023/09/23 01:08:00;;;;;;;16.58;6.32;;;;;;;22.73;54.26;98420.03;4346371;32;34364;-84
2023/09/23 01:10:28;;;;;;;13.32;5.30;;;;;;;22.63;54.74;98429.34;4347028;32;34641;-85
2023/09/23 01:12:56;;;;;;;14.93;4.90;;;;;;;22.61;54.82;98432.97;4345132;32;32616;-87
2023/09/23 01:15:31;;;;;;;12.10;4.93;;;;;;;22.68;54.46;98431.75;4350341;32;34133;-91
2023/09/23 01:17:59;;;;;;;14.50;4.95;;;;;;;22.59;54.84;98439.19;4356632;32;32070;-87
2023/09/23 01:20:27;;;;;;;14.57;5.22;;;;;;;22.59;54.90;98440.97;4371224;32;34869;-86
2023/09/23 01:22:55;;;;;;;11.82;4.55;;;;;;;22.53;55.12;98439.47;4357894;32;34007;-87
2023/09/23 01:25:24;;;;;;;12.55;4.87;;;;;;;22.59;54.87;98446.25;4359009;32;34611;-86
2023/09/23 01:27:53;;;;;;;11.90;4.40;;;;;;;22.53;55.09;98438.63;4360306;32;33747;-87
2023/09/23 01:30:21;;;;;;;11.90;4.53;;;;;;;22.60;54.90;98445.31;4354402;32;32621;-88
2023/09/23 01:32:51;;;;;;;12.68;5.03;;;;;;;22.60;55.12;98447.97;4357608;32;33854;-85
2023/09/23 01:35:20;;;;;;;14.85;5.45;;;;;;;22.71;54.95;98448.31;4373824;32;35071;-87
2023/09/23 01:37:51;;;;;;;16.15;5.15;;;;;;;22.58;54.97;98437.47;4353991;32;35177;-87
2023/09/23 01:40:19;;;;;;;16.80;4.72;;;;;;;22.67;54.99;98440.59;4357125;32;33460;-88
2023/09/23 01:42:54;;;;;;;14.60;4.43;;;;;;;22.53;55.19;98438.63;4351058;32;34338;-87
2023/09/23 01:45:22;;;;;;;12.98;5.50;;;;;;;22.40;55.68;98445.41;4345782;32;34323;-88
2023/09/23 01:47:49;;;;;;;14.13;5.05;;;;;;;22.58;55.07;98455.13;4369462;32;34560;-88
2023/09/23 01:50:17;;;;;;;13.13;4.37;;;;;;;22.60;55.01;98463.81;4348824;32;32999;-87
2023/09/23 01:52:45;;;;;;;13.55;4.78;;;;;;;22.59;55.17;98456.81;4351850;32;34848;-88
2023/09/23 01:55:16;;;;;;;18.23;5.50;;;;;;;22.57;55.36;98462.16;4353772;32;33901;-88
2023/09/23 01:57:45;;;;;;;11.93;5.45;;;;;;;22.68;55.33;98461.66;4359368;32;33400;-88
2023/09/23 02:00:24;;;;;;;11.48;4.20;;;;;;;22.54;55.52;98461.44;4358895;32;34636;-96
2023/09/23 02:02:56;;;;;;;13.40;4.70;;;;;;;22.59;55.20;98462.13;4363865;32;34774;-89
2023/09/23 02:05:27;;;;;;;13.13;4.72;;;;;;;22.56;55.07;98464.88;4361318;32;35015;-85
2023/09/23 02:07:55;;;;;;;15.77;4.90;;;;;;;22.56;55.48;98470.19;4347087;32;34536;-86
2023/09/23 02:10:26;;;;;;;14.45;5.15;;;;;;;22.57;55.57;98479.81;4354189;32;34057;-85
2023/09/23 02:12:54;;;;;;;15.40;5.15;;;;;;;22.47;55.84;98473.25;4356343;32;33769;-85
2023/09/23 02:15:28;;;;;;;13.88;4.82;;;;;;;22.64;55.39;98478.59;4371521;32;34839;-85
2023/09/23 02:17:55;;;;;;;13.18;5.10;;;;;;;22.67;55.42;98477.59;4356806;32;34579;-85
2023/09/23 02:20:24;;;;;;;19.23;6.18;;;;;;;22.70;55.11;98475.66;4357579;32;34862;-84
2023/09/23 02:22:53;;;;;;;11.57;5.37;;;;;;;22.74;55.44;98479.03;4345902;32;33907;-85
2023/09/23 02:25:25;;;;;;;13.00;5.07;;;;;;;22.75;55.81;98471.00;4353296;32;34168;-85
2023/09/23 02:27:54;;;;;;;11.77;4.78;;;;;;;22.74;55.86;98479.03;4354958;32;33488;-85
2023/09/23 02:30:23;;;;;;;11.68;5.82;;;;;;;22.83;55.71;98486.50;4352841;32;33998;-86
2023/09/23 02:32:50;;;;;;;11.98;5.60;;;;;;;22.81;55.93;98499.81;4358786;32;35136;-85
2023/09/23 02:35:19;;;;;;;15.93;5.30;;;;;;;22.93;55.83;98494.88;4359283;32;32835;-85
2023/09/23 02:37:48;;;;;;;18.23;5.90;;;;;;;22.71;56.78;98506.44;4348031;32;34477;-85
2023/09/23 02:40:17;;;;;;;13.93;5.62;;;;;;;22.77;57.02;98511.44;4345478;32;33533;-85
2023/09/23 02:42:51;;;;;;;12.85;6.12;;;;;;;22.72;57.54;98508.16;4350008;32;34202;-85
2023/09/23 02:45:20;;;;;;;14.77;6.70;;;;;;;22.62;58.13;98506.87;4344183;32;34058;-85
2023/09/23 02:47:48;;;;;;;17.17;6.75;;;;;;;22.60;58.23;98514.00;4349591;32;33841;-85
2023/09/23 02:50:17;;;;;;;23.30;6.32;;;;;;;22.73;57.92;98522.22;4353169;32;34546;-85
2023/09/23 02:52:48;;;;;;;19.37;6.78;;;;;;;22.64;58.66;98526.16;4355709;32;34174;-88
2023/09/23 02:55:19;;;;;;;15.38;6.05;;;;;;;22.57;59.10;98524.72;4348754;32;34847;-86
2023/09/23 02:57:54;;;;;;;12.95;6.30;;;;;;;22.56;59.42;98523.00;4350829;32;32302;-87
2023/09/23 03:00:29;;;;;;;16.30;6.60;;;;;;;22.58;59.18;98516.75;4357989;32;33877;-86
2023/09/23 03:02:58;;;;;;;15.82;6.35;;;;;;;22.54;59.54;98512.53;4352138;32;33828;-87
2023/09/23 03:05:30;;;;;;;17.75;6.82;;;;;;;22.55;59.66;98516.03;4354917;32;34882;-86
2023/09/23 03:07:59;;;;;;;15.85;6.75;;;;;;;22.32;60.83;98507.37;4354799;32;33684;-86
2023/09/23 03:10:34;;;;;;;18.70;7.47;;;;;;;22.31;61.46;98518.88;4356552;32;34468;-85
2023/09/23 03:13:05;;;;;;;17.25;8.02;;;;;;;22.40;61.49;98519.38;4350457;32;34903;-84
2023/09/23 03:15:41;;;;;;;20.65;7.87;;;;;;;22.40;61.85;98514.09;4358772;32;34320;-85
2023/09/23 03:18:09;;;;;;;16.05;7.18;;;;;;;22.74;61.38;98526.59;4359783;32;33306;-88
2023/09/23 03:20:37;;;;;;;25.12;7.90;;;;;;;22.33;63.37;98509.06;4347053;32;32588;-85
2023/09/23 03:23:09;;;;;;;13.32;6.72;;;;;;;22.27;63.94;98514.63;4359020;32;35141;-84
2023/09/23 03:25:47;;;;;;;14.38;7.43;;;;;;;22.37;63.72;98506.28;4355053;32;33816;-84
2023/09/23 03:28:15;;;;;;;13.77;7.30;;;;;;;22.48;63.55;98502.22;4368514;32;33778;-88
2023/09/23 03:30:49;;;;;;;17.25;8.25;;;;;;;22.15;65.00;98495.84;4345322;32;34915;-85
2023/09/23 03:33:18;;;;;;;15.32;8.27;;;;;;;22.15;65.48;98496.69;4358040;32;33685;-85
2023/09/23 03:35:47;;;;;;;20.30;8.50;;;;;;;22.19;65.28;98497.41;4351074;32;33842;-85
2023/09/23 03:38:15;;;;;;;19.58;8.02;;;;;;;22.32;64.79;98496.81;4351038;32;34344;-84
2023/09/23 03:40:51;;;;;;;20.35;7.55;;;;;;;22.23;65.28;98489.28;4349474;32;34342;-85
2023/09/23 03:43:20;;;;;;;20.05;7.72;;;;;;;22.12;65.80;98496.78;4346051;32;34980;-85
2023/09/23 03:45:48;;;;;;;17.52;7.60;;;;;;;22.09;65.79;98500.44;4345755;32;34455;-85
2023/09/23 03:48:16;;;;;;;18.62;8.18;;;;;;;22.05;66.10;98501.50;4354469;32;34178;-85
2023/09/23 03:50:43;;;;;;;16.50;8.63;;;;;;;22.05;66.30;98512.06;4353027;32;34630;-85
2023/09/23 03:53:12;;;;;;;19.30;7.78;;;;;;;21.98;66.53;98510.62;4348072;32;34675;-85
2023/09/23 03:55:40;;;;;;;18.45;8.48;;;;;;;22.09;66.22;98518.06;4348455;32;34321;-84
2023/09/23 03:58:08;;;;;;;18.00;8.20;;;;;;;22.14;66.10;98520.53;4359074;32;33644;-85
2023/09/23 04:00:36;;;;;;;19.92;9.35;;;;;;;22.14;66.05;98526.66;4353669;32;34828;-84
2023/09/23 04:03:04;;;;;;;21.40;8.93;;;;;;;21.89;67.12;98536.56;4353243;32;33929;-86
2023/09/23 04:05:31;;;;;;;20.98;9.68;;;;;;;22.01;66.81;98536.00;4346549;32;33734;-86
2023/09/23 04:07:59;;;;;;;18.27;8.13;;;;;;;21.94;67.06;98534.59;4346756;32;33425;-86
2023/09/23 04:10:27;;;;;;;25.33;9.15;;;;;;;22.06;66.60;98528.75;4345842;32;33937;-85
2023/09/23 04:12:55;;;;;;;17.20;8.68;;;;;;;21.77;67.68;98532.66;4354240;32;35043;-84
2023/09/23 04:15:24;;;;;;;20.85;9.13;;;;;;;21.76;67.88;98541.50;4357636;32;33970;-85
2023/09/23 04:17:52;;;;;;;18.62;8.90;;;;;;;21.84;67.48;98545.53;4352491;32;32061;-85
2023/09/23 04:20:19;;;;;;;15.27;8.50;;;;;;;21.83;67.34;98548.25;4348004;32;34357;-85
2023/09/23 04:22:48;;;;;;;20.85;9.63;;;;;;;21.80;67.72;98549.22;4358291;32;34953;-85
2023/09/23 04:25:16;;;;;;;22.08;8.50;;;;;;;21.93;67.17;98538.97;4364875;32;34245;-85
2023/09/23 04:27:44;;;;;;;22.23;9.38;;;;;;;21.85;67.25;98541.94;4360941;32;33332;-85
2023/09/23 04:30:12;;;;;;;22.33;8.55;;;;;;;21.79;67.61;98536.09;4359421;32;34708;-85
2023/09/23 04:32:40;;;;;;;18.42;8.43;;;;;;;21.81;67.60;98545.66;4352060;32;33087;-85
2023/09/23 04:35:09;;;;;;;17.35;8.55;;;;;;;22.04;66.57;98538.53;4345054;32;34717;-85
2023/09/23 04:37:39;;;;;;;23.95;8.98;;;;;;;22.03;66.66;98544.72;4354768;32;34619;-85
2023/09/23 04:40:09;;;;;;;25.83;9.00;;;;;;;21.90;67.21;98540.94;4345090;32;34791;-84
2023/09/23 04:42:38;;;;;;;20.33;8.75;;;;;;;21.95;67.41;98547.69;4355999;32;34885;-85
2023/09/23 04:45:07;;;;;;;22.40;9.23;;;;;;;21.67;69.12;98550.69;4351357;32;33817;-84
2023/09/23 04:47:36;;;;;;;19.08;9.45;;;;;;;21.83;68.59;98549.09;4368003;32;33230;-84
2023/09/23 04:50:05;;;;;;;22.92;9.45;;;;;;;21.82;68.79;98542.09;4338636;33;32181;-85
2023/09/23 04:52:32;;;;;;;21.10;8.20;;;;;;;21.87;68.89;98545.41;4349110;32;35171;-84
2023/09/23 04:55:01;;;;;;;19.33;8.05;;;;;;;22.05;68.17;98542.91;4346239;32;34922;-83
2023/09/23 04:57:28;;;;;;;26.08;8.77;;;;;;;22.00;68.22;98552.78;4352347;32;34463;-85
2023/09/23 04:59:57;;;;;;;23.42;8.38;;;;;;;21.82;69.11;98542.09;4357211;32;32684;-86
2023/09/23 05:02:28;;;;;;;20.40;7.90;;;;;;;21.76;69.56;98550.28;4358204;32;34723;-85
2023/09/23 05:04:56;;;;;;;16.10;7.60;;;;;;;21.87;69.22;98557.75;4357145;32;34175;-86
2023/09/23 05:07:25;;;;;;;20.45;8.57;;;;;;;21.69;69.55;98561.16;4359064;32;33868;-85
2023/09/23 05:09:55;;;;;;;17.23;7.30;;;;;;;21.74;69.58;98575.84;4347115;32;33559;-85
2023/09/23 05:12:24;;;;;;;18.27;8.18;;;;;;;21.82;69.20;98581.69;4346833;32;33764;-86
2023/09/23 05:14:51;;;;;;;17.60;7.20;;;;;;;21.72;69.57;98575.06;4353865;32;34290;-86
2023/09/23 05:17:22;;;;;;;20.17;8.52;;;;;;;21.92;69.23;98589.19;4351213;32;33193;-85
2023/09/23 05:19:49;;;;;;;22.25;8.25;;;;;;;21.78;69.46;98590.66;4349495;32;34737;-86
2023/09/23 05:22:17;;;;;;;20.62;7.90;;;;;;;21.90;69.19;98591.06;4359942;32;35609;-86
2023/09/23 05:24:50;;;;;;;20.15;8.45;;;;;;;21.84;69.49;98593.03;4353330;32;33860;-86
2023/09/23 05:27:17;;;;;;;21.67;8.18;;;;;;;21.99;68.91;98601.22;4371594;32;33520;-86
2023/09/23 05:29:45;;;;;;;18.65;7.40;;;;;;;21.97;69.04;98613.59;4360773;32;33729;-85
2023/09/23 05:32:13;;;;;;;18.35;8.23;;;;;;;21.82;69.74;98621.28;4354311;32;34327;-86
2023/09/23 05:34:41;;;;;;;19.33;7.85;;;;;;;21.95;69.22;98629.53;4349802;32;33618;-86
2023/09/23 05:37:12;;;;;;;14.32;7.35;;;;;;;22.07;68.79;98634.28;4354858;32;33466;-86
2023/09/23 05:39:45;;;;;;;16.77;7.05;;;;;;;22.03;68.87;98652.94;4359196;32;33084;-85
2023/09/23 05:42:15;;;;;;;19.45;7.90;;;;;;;21.95;69.21;98650.63;4358152;32;34071;-85
2023/09/23 05:44:44;;;;;;;19.70;7.57;;;;;;;21.84;69.66;98650.22;4346629;32;33680;-86
2023/09/23 05:47:11;;;;;;;15.90;6.87;;;;;;;21.77;69.91;98660.16;4344613;33;32752;-83
2023/09/23 05:49:40;;;;;;;15.55;7.55;;;;;;;22.14;68.61;98669.22;4344664;33;33913;-84
2023/09/23 05:52:08;;;;;;;19.73;8.30;;;;;;;21.84;69.49;98672.19;4351247;32;34114;-85
2023/09/23 05:54:36;;;;;;;16.50;7.25;;;;;;;21.75;70.23;98675.22;4351339;32;34702;-85
2023/09/23 05:57:03;;;;;;;22.75;7.55;;;;;;;21.67;70.57;98679.94;4360934;32;34776;-84
2023/09/23 05:59:31;;;;;;;18.80;7.43;;;;;;;21.93;69.88;98689.41;4360677;32;34037;-84
2023/09/23 06:01:59;;;;;;;20.88;9.32;;;;;;;21.82;70.70;98692.53;4350123;32;34990;-83
2023/09/23 06:04:27;;;;;;;19.00;8.15;;;;;;;21.87;70.82;98687.06;4360687;32;34255;-84
2023/09/23 06:06:55;;;;;;;22.37;9.38;;;;;;;21.69;71.76;98686.00;4360369;32;33744;-84
2023/09/23 06:09:24;;;;;;;24.35;8.60;;;;;;;21.69;72.01;98698.34;4360437;32;33850;-85
2023/09/23 06:11:52;;;;;;;21.08;8.50;;;;;;;21.54;72.89;98694.53;4358013;32;34200;-84
2023/09/23 06:14:19;;;;;;;22.02;9.45;;;;;;;21.89;71.50;98686.97;4344806;33;34189;-84
2023/09/23 06:16:48;;;;;;;21.67;9.07;;;;;;;21.73;72.07;98674.41;4369218;32;34472;-84
2023/09/23 06:19:16;;;;;;;25.05;11.23;;;;;;;21.73;72.45;98686.75;4345089;32;32176;-84
2023/09/23 06:21:44;;;;;;;23.92;10.20;;;;;;;21.81;72.04;98688.13;4357881;32;34889;-85
2023/09/23 06:24:12;;;;;;;21.52;9.30;;;;;;;21.87;71.89;98693.19;4360112;32;34215;-84
2023/09/23 06:26:39;;;;;;;22.23;9.25;;;;;;;22.00;71.42;98697.94;4355161;32;33733;-84
2023/09/23 06:29:09;;;;;;;21.17;8.00;;;;;;;22.20;70.62;98713.00;4344275;32;32736;-84
2023/09/23 06:31:36;;;;;;;17.65;7.87;;;;;;;21.76;71.23;98732.34;4345599;32;34985;-83
2023/09/23 06:34:06;;;;;;;20.65;7.12;;;;;;;21.98;70.09;98739.41;4349192;32;34228;-83
2023/09/23 06:36:35;;;;;;;14.57;7.45;;;;;;;21.61;69.08;98754.91;4355999;32;33678;-83
2023/09/23 06:39:02;;;;;;;18.00;8.20;;;;;;;21.47;69.20;98783.56;4360352;32;34029;-82
2023/09/23 06:41:30;;;;;;;13.55;7.47;;;;;;;21.23;70.00;98809.03;4345694;33;33875;-83
2023/09/23 06:43:58;;;;;;;17.80;8.57;;;;;;;21.26;69.54;98803.66;4356452;32;33836;-84
2023/09/23 06:46:26;;;;;;;13.43;7.50;;;;;;;21.43;68.98;98810.13;4345347;32;34572;-82
2023/09/23 06:48:57;;;;;;;18.52;8.68;;;;;;;21.44;69.33;98818.00;4345465;33;33750;-84
2023/09/23 06:51:27;;;;;;;19.45;8.43;;;;;;;21.61;68.99;98825.25;4358571;32;33864;-84
2023/09/23 06:53:55;;;;;;;19.85;10.45;;;;;;;21.67;69.96;98840.88;4358580;32;34159;-83
2023/09/23 06:56:22;;;;;;;19.70;9.30;;;;;;;21.23;73.06;98835.41;4360348;32;33911;-84
2023/09/23 06:58:50;;;;;;;22.42;10.48;;;;;;;21.36;73.09;98841.13;4360110;32;34072;-84
2023/09/23 07:01:17;;;;;;;20.60;10.18;;;;;;;21.43;72.63;98845.25;4359683;32;34073;-84
2023/09/23 07:03:46;;;;;;;20.33;9.55;;;;;;;21.54;72.54;98858.06;4354546;32;34273;-82
2023/09/23 07:06:14;;;;;;;19.65;9.77;;;;;;;21.54;71.89;98848.38;4345430;33;33744;-84
2023/09/23 07:08:42;;;;;;;16.00;8.95;;;;;;;21.23;72.79;98853.88;4345258;33;33596;-83
2023/09/23 07:11:13;;;;;;;14.18;8.63;;;;;;;21.14;72.82;98844.50;4345944;32;34253;-84
2023/09/23 07:13:41;;;;;;;11.80;7.82;;;;;;;21.12;72.90;98874.47;4359967;32;34939;-82
2023/09/23 07:16:14;;;;;;;15.02;8.38;;;;;;;21.18;72.13;98870.78;4360209;32;33449;-82
2023/09/23 07:18:44;;;;;;;15.40;9.07;;;;;;;21.11;72.47;98863.06;4359745;32;34882;-83
2023/09/23 07:21:12;;;;;;;14.87;7.18;;;;;;;21.02;72.81;98875.69;4345139;32;33594;-83
2023/09/23 07:23:39;;;;;;;18.02;8.18;;;;;;;20.96;72.61;98870.66;4354975;32;34888;-84
2023/09/23 07:26:06;;;;;;;14.18;7.93;;;;;;;21.00;72.35;98881.03;4358799;32;33013;-82
2023/09/23 07:28:34;;;;;;;13.88;7.35;;;;;;;21.08;71.95;98888.66;4354973;32;34051;-82
2023/09/23 07:31:02;;;;;;;13.75;6.95;;;;;;;21.20;71.09;98885.59;4353428;32;34150;-83
2023/09/23 07:33:29;;;;;;;13.57;7.93;;;;;;;20.95;72.00;98901.41;4348910;32;34363;-83
2023/09/23 07:35:57;;;;;;;13.85;6.85;;;;;;;21.10;70.92;98905.28;4344629;33;33457;-83
2023/09/23 07:38:24;;;;;;;11.75;6.70;;;;;;;21.34;70.32;98903.63;4357617;32;33536;-84
2023/09/23 07:40:54;;;;;;;13.68;7.03;;;;;;;21.38;70.44;98899.97;4349062;32;34971;-82
2023/09/23 07:43:22;;;;;;;17.35;7.45;;;;;;;21.31;70.98;98899.28;4356771;32;34058;-83
2023/09/23 07:45:54;;;;;;;12.70;7.00;;;;;;;21.35;71.02;98897.41;4355886;32;34103;-82
2023/09/23 07:48:22;;;;;;;14.48;7.32;;;;;;;21.22;70.46;98889.06;4344535;33;34625;-84
2023/09/23 07:50:50;;;;;;;12.60;6.57;;;;;;;21.47;69.83;98882.94;4346080;32;35101;-83
2023/09/23 07:53:17;;;;;;;12.60;7.40;;;;;;;21.29;70.55;98885.28;4369649;32;34686;-83
2023/09/23 07:55:45;;;;;;;13.40;6.93;;;;;;;21.31;70.60;98874.69;4359351;32;33409;-84
2023/09/23 07:58:13;;;;;;;15.48;7.87;;;;;;;21.17;70.43;98855.84;4359656;32;34645;-84
2023/09/23 08:00:40;;;;;;;10.48;7.35;;;;;;;20.15;73.38;98843.41;4359465;32;35110;-84
2023/09/23 08:03:08;;;;;;;12.90;7.40;;;;;;;20.14;74.98;98822.38;4359384;32;34781;-84
2023/09/23 08:05:36;;;;;;;11.52;7.47;;;;;;;20.08;75.08;98812.91;4358041;32;32938;-85
2023/09/23 08:08:04;;;;;;;9.90;7.37;;;;;;;19.77;76.24;98797.19;4359761;32;34788;-84
2023/09/23 08:10:32;;;;;;;10.95;7.10;;;;;;;20.19;74.19;98783.59;4358177;32;34098;-84
2023/09/23 08:12:59;;;;;;;13.50;6.80;;;;;;;20.33;72.69;98752.41;4359376;32;34159;-84
2023/09/23 08:15:26;;;;;;;10.00;6.45;;;;;;;20.03;74.00;98749.03;4358304;32;33652;-84
2023/09/23 08:17:54;;;;;;;14.63;7.40;;;;;;;20.24;73.87;98743.97;4359165;32;34514;-84
2023/09/23 08:20:23;;;;;;;10.30;7.60;;;;;;;20.44;73.57;98743.31;4359391;32;34029;-84
2023/09/23 08:22:51;;;;;;;11.68;7.40;;;;;;;20.58;72.72;98751.63;4359554;32;35499;-84
2023/09/23 08:25:20;;;;;;;15.38;8.57;;;;;;;20.73;72.05;98745.84;4357961;32;33578;-84
2023/09/23 08:27:48;;;;;;;12.48;7.97;;;;;;;20.65;73.01;98739.97;4359380;32;33898;-84
2023/09/23 08:30:16;;;;;;;13.65;7.87;;;;;;;20.95;72.18;98742.41;4359131;32;34241;-84
2023/09/23 08:32:44;;;;;;;12.88;8.00;;;;;;;20.62;73.30;98745.34;4358941;32;34484;-84
2023/09/23 08:35:11;;;;;;;14.68;9.68;;;;;;;20.71;73.04;98750.28;4358980;32;34377;-84
2023/09/23 08:37:39;;;;;;;14.32;8.80;;;;;;;20.64;73.46;98756.66;4357824;32;33996;-84
2023/09/23 08:40:10;;;;;;;11.68;8.32;;;;;;;20.56;74.10;98750.81;4359001;32;33800;-84
2023/09/23 08:42:39;;;;;;;16.17;9.23;;;;;;;20.96;72.92;98759.97;4359073;32;35112;-84
2023/09/23 08:45:10;;;;;;;18.65;9.30;;;;;;;20.68;74.25;98758.28;4359231;32;33799;-84
2023/09/23 08:47:38;;;;;;;13.68;9.80;;;;;;;21.04;73.08;98753.50;4358064;32;34525;-84
2023/09/23 08:50:08;;;;;;;16.98;10.27;;;;;;;20.83;74.59;98755.09;4361126;32;34840;-85
2023/09/23 08:52:36;;;;;;;17.30;12.82;;;;;;;20.64;76.56;98751.41;4372075;32;34107;-85
2023/09/23 08:55:04;;;;;;;19.92;14.85;;;;;;;20.83;76.64;98749.84;4361323;32;33685;-84
2023/09/23 08:57:32;;;;;;;23.90;14.57;;;;;;;20.92;77.78;98753.09;4360055;32;33698;-84
2023/09/23 09:00:00;;;;;;;24.73;15.05;;;;;;;21.07;77.14;98763.06;4359766;32;34987;-84
2023/09/23 09:02:30;;;;;;;23.12;14.70;;;;;;;21.25;77.55;98782.59;4361165;32;34227;-85
2023/09/23 09:04:58;;;;;;;21.23;15.55;;;;;;;21.47;76.77;98793.25;4361029;32;34767;-84
2023/09/23 09:07:34;;;;;;;19.20;15.65;;;;;;;21.55;76.89;98805.22;4359721;32;32734;-84
2023/09/23 09:10:02;;;;;;;28.77;18.17;;;;;;;21.55;76.92;98820.22;4359879;32;33402;-84
2023/09/23 09:12:32;;;;;;;26.37;18.17;;;;;;;21.21;77.52;98829.31;4360745;32;34859;-85
2023/09/23 09:15:00;;;;;;;22.62;17.67;;;;;;;21.40;77.30;98839.22;4359770;32;33638;-85
2023/09/23 09:17:28;;;;;;;26.25;18.37;;;;;;;21.66;75.77;98838.28;4371939;32;34030;-84
2023/09/23 09:19:56;;;;;;;25.95;19.33;;;;;;;21.63;76.00;98841.91;4360624;32;34570;-84
2023/09/23 09:22:24;;;;;;;22.83;18.75;;;;;;;21.70;75.30;98846.00;4359769;32;33503;-85
2023/09/23 09:24:52;;;;;;;21.62;19.17;;;;;;;21.59;75.12;98845.56;4360929;32;34540;-85
2023/09/23 09:27:21;;;;;;;25.12;21.12;;;;;;;21.42;75.71;98853.25;4360890;32;33750;-85
2023/09/23 09:29:49;;;;;;;25.65;22.85;;;;;;;21.68;74.62;98855.78;4360912;32;34119;-84
2023/09/23 09:32:29;;;;;;;26.35;23.17;;;;;;;21.67;74.93;98856.72;4360604;32;34334;-84
2023/09/23 09:35:02;;;;;;;24.67;20.77;;;;;;;21.22;76.28;98867.97;4361008;32;34908;-85
2023/09/23 09:37:31;;;;;;;24.65;20.67;;;;;;;21.37;75.34;98856.91;4359694;32;33847;-85
2023/09/23 09:40:00;;;;;;;19.12;16.33;;;;;;;21.48;74.73;98863.53;4360856;32;35112;-85
2023/09/23 09:42:30;;;;;;;20.45;15.60;;;;;;;21.46;74.41;98865.41;4359969;32;33378;-85
2023/09/23 09:44:59;;;;;;;16.85;13.90;;;;;;;21.53;74.40;98848.44;4359648;32;33707;-85
2023/09/23 09:47:27;;;;;;;19.30;12.50;;;;;;;21.71;73.67;98829.28;4358999;32;33410;-85
2023/09/23 09:49:55;;;;;;;15.85;13.50;;;;;;;21.83;73.60;98831.44;4371728;32;34481;-84
2023/09/23 09:52:25;;;;;;;17.27;12.48;;;;;;;21.97;74.14;98835.31;4360857;32;34548;-85
2023/09/23 09:54:55;;;;;;;13.07;10.07;;;;;;;22.17;73.64;98839.88;4359494;32;34690;-85
2023/09/23 09:57:26;;;;;;;14.85;10.45;;;;;;;22.37;74.03;98829.34;4359518;32;33375;-85
2023/09/23 10:00:07;;;;;;;12.98;8.55;;;;;;;22.67;71.56;98836.94;4358536;32;34189;-85
2023/09/23 10:02:38;;;;;;;14.73;8.93;;;;;;;22.22;72.38;98840.53;4360525;32;34336;-84
2023/09/23 10:05:06;;;;;;;12.25;7.32;;;;;;;22.22;71.02;98836.13;4360948;32;33554;-85
2023/09/23 10:07:55;;;;;;;11.43;7.50;;;;;;;22.59;70.32;98834.63;4349830;32;32925;-84
2023/09/23 10:10:31;;;;;;;11.27;6.32;;;;;;;22.86;69.84;98829.97;4344447;33;35670;-83
2023/09/23 10:13:11;;;;;;;11.70;6.37;;;;;;;22.45;69.22;98832.53;4353871;32;34081;-83
2023/09/23 10:15:40;;;;;;;8.70;5.43;;;;;;;22.33;70.53;98839.19;4359138;32;34508;-83
2023/09/23 10:18:18;;;;;;;11.10;6.53;;;;;;;22.59;68.82;98839.91;4360413;32;34022;-84
2023/09/23 10:20:51;;;;;;;10.35;6.50;;;;;;;22.47;70.47;98854.50;4359457;32;34062;-83
2023/09/23 10:23:19;;;;;;;10.05;7.05;;;;;;;22.45;68.58;98852.81;4360530;32;33960;-83
2023/09/23 10:25:50;;;;;;;10.50;6.43;;;;;;;22.54;68.42;98852.44;4360524;32;34664;-86
2023/09/23 10:28:23;;;;;;;10.95;6.40;;;;;;;22.76;68.62;98858.56;4358941;32;35310;-83
2023/09/23 10:31:03;;;;;;;10.85;6.22;;;;;;;22.74;68.11;98843.69;4358392;32;33475;-85
2023/09/23 10:33:32;;;;;;;9.48;6.95;;;;;;;22.16;69.97;98846.94;4360263;32;34200;-84
2023/09/23 10:36:03;;;;;;;12.02;8.43;;;;;;;21.89;70.48;98850.59;4359349;32;33306;-83
2023/09/23 10:38:35;;;;;;;10.75;7.12;;;;;;;21.86;70.75;98849.81;4344397;33;34148;-83
2023/09/23 10:41:04;;;;;;;10.73;6.80;;;;;;;22.19;69.83;98857.34;4345586;33;34250;-83
2023/09/23 10:43:31;;;;;;;10.77;6.47;;;;;;;22.36;68.70;98855.84;4345569;33;34156;-84
2023/09/23 10:46:02;;;;;;;10.10;7.97;;;;;;;22.01;69.45;98842.19;4343977;33;32986;-84
2023/09/23 10:48:29;;;;;;;10.93;9.13;;;;;;;21.92;72.14;98855.75;4345139;32;33553;-83
2023/09/23 10:50:59;;;;;;;13.65;8.70;;;;;;;22.20;70.83;98853.81;4356222;32;34158;-83
2023/09/23 10:53:30;;;;;;;9.85;8.63;;;;;;;21.83;70.97;98864.91;4360251;32;34520;-84
2023/09/23 10:56:01;;;;;;;11.43;9.27;;;;;;;21.81;70.65;98872.84;4359486;32;33215;-84
2023/09/23 10:58:31;;;;;;;11.55;8.27;;;;;;;21.47;71.27;98882.94;4360448;32;33766;-83
2023/09/23 11:00:59;;;;;;;12.48;9.98;;;;;;;21.92;68.46;98868.97;4358898;32;34147;-83
2023/09/23 11:03:28;;;;;;;12.75;9.75;;;;;;;21.51;69.11;98885.41;4360397;32;34845;-83
2023/09/23 11:05:55;;;;;;;12.23;10.25;;;;;;;21.20;70.69;98885.59;4360397;32;34463;-84
2023/09/23 11:08:23;;;;;;;13.65;10.70;;;;;;;21.09;71.24;98906.19;4358843;32;32310;-84
2023/09/23 11:10:51;;;;;;;12.05;10.52;;;;;;;21.36;70.01;98913.19;4359854;32;35044;-86
2023/09/23 11:13:18;;;;;;;11.15;10.05;;;;;;;21.30;70.03;98910.75;4358516;32;33185;-84
2023/09/23 11:15:48;;;;;;;10.60;9.50;;;;;;;21.01;70.29;98911.72;4345070;33;34018;-85
2023/09/23 11:18:16;;;;;;;11.52;9.18;;;;;;;21.47;68.76;98914.59;4346248;32;33931;-84
2023/09/23 11:20:47;;;;;;;20.98;12.37;;;;;;;21.38;69.43;98921.91;4346297;32;33320;-87
2023/09/23 11:23:18;;;;;;;9.90;8.50;;;;;;;20.86;71.25;98928.91;4358413;32;33639;-86
2023/09/23 11:25:46;;;;;;;10.18;8.38;;;;;;;21.07;70.92;98913.31;4352129;32;34451;-88
2023/09/23 11:28:25;;;;;;;9.85;7.22;;;;;;;21.36;69.49;98902.63;4347450;32;34508;-84
2023/09/23 11:30:54;;;;;;;12.18;7.20;;;;;;;21.68;68.34;98898.00;4346909;32;32739;-88
2023/09/23 11:33:22;;;;;;;10.98;7.40;;;;;;;21.72;68.39;98904.88;4356814;32;33525;-84